sensor_id;sensor_type;location;lat;lon;timestamp;P1;durP1;ratioP1;P2;durP2;ratioP2
17761;SDS011;9005;48.838;10.112;2023-02-15T00:01:26;2.67;;;2.40;;
17761;SDS011;9005;48.838;10.112;2023-02-15T00:03:53;2.15;;;1.90;;
17761;SDS011;9005;48.838;10.112;2023-02-15T00:06:20;2.55;;;2.15;;
17761;SDS011;9005;48.838;10.112;2023-02-15T00:08:49;4.28;;;2.22;;
17761;SDS011;9005;48.838;10.112;2023-02-15T00:11:16;2.10;;;1.90;;
17761;SDS011;9005;48.838;10.112;2023-02-15T00:14:04;2.63;;;2.03;;
17761;SDS011;9005;48.838;10.112;2023-02-15T00:16:32;2.25;;;1.90;;
17761;SDS011;9005;48.838;10.112;2023-02-15T00:19:04;2.97;;;2.33;;
17761;SDS011;9005;48.838;10.112;2023-02-15T00:21:31;3.00;;;2.08;;
17761;SDS011;9005;48.838;10.112;2023-02-15T00:24:01;3.20;;;2.10;;
17761;SDS011;9005;48.838;10.112;2023-02-15T00:26:29;3.28;;;2.22;;
17761;SDS011;9005;48.838;10.112;2023-02-15T00:28:56;4.20;;;2.78;;
17761;SDS011;9005;48.838;10.112;2023-02-15T00:31:24;4.10;;;2.22;;
17761;SDS011;9005;48.838;10.112;2023-02-15T00:33:51;2.15;;;1.83;;
17761;SDS011;9005;48.838;10.112;2023-02-15T00:36:18;3.00;;;2.25;;
17761;SDS011;9005;48.838;10.112;2023-02-15T00:38:45;4.05;;;2.72;;
17761;SDS011;9005;48.838;10.112;2023-02-15T00:41:13;2.65;;;1.88;;
17761;SDS011;9005;48.838;10.112;2023-02-15T00:43:41;3.28;;;2.72;;
17761;SDS011;9005;48.838;10.112;2023-02-15T00:46:08;2.17;;;1.83;;
17761;SDS011;9005;48.838;10.112;2023-02-15T00:48:36;2.75;;;1.95;;
17761;SDS011;9005;48.838;10.112;2023-02-15T00:51:02;2.05;;;1.75;;
17761;SDS011;9005;48.838;10.112;2023-02-15T00:53:30;2.22;;;2.03;;
17761;SDS011;9005;48.838;10.112;2023-02-15T00:55:57;2.22;;;2.00;;
17761;SDS011;9005;48.838;10.112;2023-02-15T00:58:28;3.00;;;2.15;;
17761;SDS011;9005;48.838;10.112;2023-02-15T01:00:54;2.22;;;1.75;;
17761;SDS011;9005;48.838;10.112;2023-02-15T01:03:28;3.53;;;2.45;;
17761;SDS011;9005;48.838;10.112;2023-02-15T01:05:55;3.42;;;2.13;;
17761;SDS011;9005;48.838;10.112;2023-02-15T01:08:22;3.38;;;2.70;;
17761;SDS011;9005;48.838;10.112;2023-02-15T01:10:49;4.45;;;2.20;;
17761;SDS011;9005;48.838;10.112;2023-02-15T01:13:16;2.55;;;2.35;;
17761;SDS011;9005;48.838;10.112;2023-02-15T01:15:44;2.92;;;2.63;;
17761;SDS011;9005;48.838;10.112;2023-02-15T01:18:11;2.25;;;1.90;;
17761;SDS011;9005;48.838;10.112;2023-02-15T01:20:39;2.35;;;2.00;;
17761;SDS011;9005;48.838;10.112;2023-02-15T01:23:06;2.60;;;2.40;;
17761;SDS011;9005;48.838;10.112;2023-02-15T01:25:34;2.38;;;2.17;;
17761;SDS011;9005;48.838;10.112;2023-02-15T01:28:01;3.50;;;2.22;;
17761;SDS011;9005;48.838;10.112;2023-02-15T01:30:29;3.55;;;2.00;;
17761;SDS011;9005;48.838;10.112;2023-02-15T01:32:57;4.13;;;1.95;;
17761;SDS011;9005;48.838;10.112;2023-02-15T01:35:25;3.03;;;2.72;;
17761;SDS011;9005;48.838;10.112;2023-02-15T01:37:53;3.22;;;2.45;;
17761;SDS011;9005;48.838;10.112;2023-02-15T01:40:20;5.22;;;2.95;;
17761;SDS011;9005;48.838;10.112;2023-02-15T01:42:50;2.60;;;2.13;;
17761;SDS011;9005;48.838;10.112;2023-02-15T01:45:19;2.42;;;2.13;;
17761;SDS011;9005;48.838;10.112;2023-02-15T01:47:49;2.55;;;2.08;;
17761;SDS011;9005;48.838;10.112;2023-02-15T01:50:23;3.25;;;2.35;;
17761;SDS011;9005;48.838;10.112;2023-02-15T01:52:54;3.25;;;2.13;;
17761;SDS011;9005;48.838;10.112;2023-02-15T01:55:25;2.63;;;2.20;;
17761;SDS011;9005;48.838;10.112;2023-02-15T01:57:54;1.92;;;1.75;;
17761;SDS011;9005;48.838;10.112;2023-02-15T02:00:22;6.30;;;2.05;;
17761;SDS011;9005;48.838;10.112;2023-02-15T02:02:50;7.30;;;3.90;;
17761;SDS011;9005;48.838;10.112;2023-02-15T02:05:19;2.53;;;2.33;;
17761;SDS011;9005;48.838;10.112;2023-02-15T02:07:48;2.20;;;1.75;;
17761;SDS011;9005;48.838;10.112;2023-02-15T02:10:18;2.70;;;1.90;;
17761;SDS011;9005;48.838;10.112;2023-02-15T02:12:47;4.70;;;1.95;;
17761;SDS011;9005;48.838;10.112;2023-02-15T02:15:17;6.93;;;3.25;;
17761;SDS011;9005;48.838;10.112;2023-02-15T02:17:47;2.13;;;1.98;;
17761;SDS011;9005;48.838;10.112;2023-02-15T02:23:41;4.38;;;1.80;;
17761;SDS011;9005;48.838;10.112;2023-02-15T02:29:49;1.85;;;1.63;;
17761;SDS011;9005;48.838;10.112;2023-02-15T02:35:30;2.53;;;1.50;;
17761;SDS011;9005;48.838;10.112;2023-02-15T02:38:03;2.70;;;1.60;;
17761;SDS011;9005;48.838;10.112;2023-02-15T02:40:39;3.03;;;1.45;;
17761;SDS011;9005;48.838;10.112;2023-02-15T02:43:15;5.38;;;2.97;;
17761;SDS011;9005;48.838;10.112;2023-02-15T02:45:49;4.75;;;2.15;;
17761;SDS011;9005;48.838;10.112;2023-02-15T02:48:20;3.72;;;2.40;;
17761;SDS011;9005;48.838;10.112;2023-02-15T02:50:49;2.08;;;1.60;;
17761;SDS011;9005;48.838;10.112;2023-02-15T02:53:16;3.22;;;1.77;;
17761;SDS011;9005;48.838;10.112;2023-02-15T02:55:43;2.15;;;1.95;;
17761;SDS011;9005;48.838;10.112;2023-02-15T02:58:14;3.85;;;1.85;;
17761;SDS011;9005;48.838;10.112;2023-02-15T03:00:46;4.18;;;2.90;;
17761;SDS011;9005;48.838;10.112;2023-02-15T03:03:19;2.28;;;1.85;;
17761;SDS011;9005;48.838;10.112;2023-02-15T03:05:52;1.40;;;1.30;;
17761;SDS011;9005;48.838;10.112;2023-02-15T03:08:21;4.00;;;2.35;;
17761;SDS011;9005;48.838;10.112;2023-02-15T03:10:53;3.42;;;1.90;;
17761;SDS011;9005;48.838;10.112;2023-02-15T03:13:22;3.78;;;1.77;;
17761;SDS011;9005;48.838;10.112;2023-02-15T03:15:49;4.00;;;2.42;;
17761;SDS011;9005;48.838;10.112;2023-02-15T03:18:38;1.63;;;1.40;;
17761;SDS011;9005;48.838;10.112;2023-02-15T03:21:08;2.60;;;1.90;;
17761;SDS011;9005;48.838;10.112;2023-02-15T03:23:47;1.80;;;1.70;;
17761;SDS011;9005;48.838;10.112;2023-02-15T03:26:18;2.25;;;1.48;;
17761;SDS011;9005;48.838;10.112;2023-02-15T03:28:47;4.13;;;2.00;;
17761;SDS011;9005;48.838;10.112;2023-02-15T03:31:19;2.88;;;2.03;;
17761;SDS011;9005;48.838;10.112;2023-02-15T03:33:53;1.95;;;1.75;;
17761;SDS011;9005;48.838;10.112;2023-02-15T03:36:24;4.47;;;1.88;;
17761;SDS011;9005;48.838;10.112;2023-02-15T03:38:59;2.95;;;2.40;;
17761;SDS011;9005;48.838;10.112;2023-02-15T03:41:34;3.78;;;2.08;;
17761;SDS011;9005;48.838;10.112;2023-02-15T03:44:06;3.00;;;2.03;;
17761;SDS011;9005;48.838;10.112;2023-02-15T03:46:40;2.90;;;2.35;;
17761;SDS011;9005;48.838;10.112;2023-02-15T03:49:14;2.17;;;1.85;;
17761;SDS011;9005;48.838;10.112;2023-02-15T03:51:46;2.08;;;1.65;;
17761;SDS011;9005;48.838;10.112;2023-02-15T03:54:17;2.35;;;1.55;;
17761;SDS011;9005;48.838;10.112;2023-02-15T03:57:00;2.45;;;2.10;;
17761;SDS011;9005;48.838;10.112;2023-02-15T03:59:41;1.60;;;1.50;;
17761;SDS011;9005;48.838;10.112;2023-02-15T04:02:26;3.25;;;1.90;;
17761;SDS011;9005;48.838;10.112;2023-02-15T04:05:02;2.20;;;2.00;;
17761;SDS011;9005;48.838;10.112;2023-02-15T04:07:29;1.77;;;1.58;;
17761;SDS011;9005;48.838;10.112;2023-02-15T04:09:56;2.00;;;1.77;;
17761;SDS011;9005;48.838;10.112;2023-02-15T04:12:40;1.98;;;1.77;;
17761;SDS011;9005;48.838;10.112;2023-02-15T04:15:07;2.63;;;1.90;;
17761;SDS011;9005;48.838;10.112;2023-02-15T04:17:55;2.15;;;1.73;;
17761;SDS011;9005;48.838;10.112;2023-02-15T04:20:23;2.35;;;2.15;;
17761;SDS011;9005;48.838;10.112;2023-02-15T04:23:07;3.15;;;2.45;;
17761;SDS011;9005;48.838;10.112;2023-02-15T04:25:51;2.55;;;1.83;;
17761;SDS011;9005;48.838;10.112;2023-02-15T04:28:18;1.58;;;1.40;;
17761;SDS011;9005;48.838;10.112;2023-02-15T04:30:46;2.90;;;2.10;;
17761;SDS011;9005;48.838;10.112;2023-02-15T04:33:12;2.40;;;2.17;;
17761;SDS011;9005;48.838;10.112;2023-02-15T04:35:42;2.15;;;1.73;;
17761;SDS011;9005;48.838;10.112;2023-02-15T04:38:10;3.75;;;2.28;;
17761;SDS011;9005;48.838;10.112;2023-02-15T04:40:36;2.65;;;2.15;;
17761;SDS011;9005;48.838;10.112;2023-02-15T04:43:03;2.55;;;1.88;;
17761;SDS011;9005;48.838;10.112;2023-02-15T04:45:30;2.20;;;2.00;;
17761;SDS011;9005;48.838;10.112;2023-02-15T04:47:56;2.90;;;1.95;;
17761;SDS011;9005;48.838;10.112;2023-02-15T04:50:23;2.20;;;1.75;;
17761;SDS011;9005;48.838;10.112;2023-02-15T04:52:51;3.20;;;2.15;;
17761;SDS011;9005;48.838;10.112;2023-02-15T04:55:18;2.80;;;2.10;;
17761;SDS011;9005;48.838;10.112;2023-02-15T04:57:45;1.77;;;1.67;;
17761;SDS011;9005;48.838;10.112;2023-02-15T05:00:12;3.38;;;2.00;;
17761;SDS011;9005;48.838;10.112;2023-02-15T05:02:39;1.45;;;1.35;;
17761;SDS011;9005;48.838;10.112;2023-02-15T05:05:06;2.30;;;1.95;;
17761;SDS011;9005;48.838;10.112;2023-02-15T05:07:34;1.92;;;1.80;;
17761;SDS011;9005;48.838;10.112;2023-02-15T05:10:02;2.00;;;1.80;;
17761;SDS011;9005;48.838;10.112;2023-02-15T05:12:29;2.17;;;1.45;;
17761;SDS011;9005;48.838;10.112;2023-02-15T05:14:56;2.58;;;2.38;;
17761;SDS011;9005;48.838;10.112;2023-02-15T05:17:23;2.13;;;1.52;;
17761;SDS011;9005;48.838;10.112;2023-02-15T05:19:50;1.48;;;1.38;;
17761;SDS011;9005;48.838;10.112;2023-02-15T05:22:16;2.45;;;2.13;;
17761;SDS011;9005;48.838;10.112;2023-02-15T05:24:43;2.75;;;2.17;;
17761;SDS011;9005;48.838;10.112;2023-02-15T05:27:28;4.55;;;1.65;;
17761;SDS011;9005;48.838;10.112;2023-02-15T05:30:13;3.60;;;2.08;;
17761;SDS011;9005;48.838;10.112;2023-02-15T05:32:40;2.65;;;1.92;;
17761;SDS011;9005;48.838;10.112;2023-02-15T05:35:06;3.85;;;2.35;;
17761;SDS011;9005;48.838;10.112;2023-02-15T05:37:33;2.60;;;1.83;;
17761;SDS011;9005;48.838;10.112;2023-02-15T05:40:00;3.13;;;1.52;;
17761;SDS011;9005;48.838;10.112;2023-02-15T05:42:28;2.15;;;1.95;;
17761;SDS011;9005;48.838;10.112;2023-02-15T05:44:55;2.20;;;1.70;;
17761;SDS011;9005;48.838;10.112;2023-02-15T05:47:22;2.40;;;2.20;;
17761;SDS011;9005;48.838;10.112;2023-02-15T05:49:48;3.63;;;1.58;;
17761;SDS011;9005;48.838;10.112;2023-02-15T05:52:15;3.00;;;1.80;;
17761;SDS011;9005;48.838;10.112;2023-02-15T05:54:42;2.15;;;1.63;;
17761;SDS011;9005;48.838;10.112;2023-02-15T05:57:08;2.35;;;1.88;;
17761;SDS011;9005;48.838;10.112;2023-02-15T05:59:37;2.80;;;2.00;;
17761;SDS011;9005;48.838;10.112;2023-02-15T06:02:03;2.70;;;2.45;;
17761;SDS011;9005;48.838;10.112;2023-02-15T06:04:31;3.38;;;2.15;;
17761;SDS011;9005;48.838;10.112;2023-02-15T06:06:58;1.88;;;1.77;;
17761;SDS011;9005;48.838;10.112;2023-02-15T06:09:24;4.03;;;2.15;;
17761;SDS011;9005;48.838;10.112;2023-02-15T06:11:51;2.35;;;2.10;;
17761;SDS011;9005;48.838;10.112;2023-02-15T06:14:18;1.70;;;1.58;;
17761;SDS011;9005;48.838;10.112;2023-02-15T06:16:46;3.58;;;2.05;;
17761;SDS011;9005;48.838;10.112;2023-02-15T06:19:13;2.38;;;2.17;;
17761;SDS011;9005;48.838;10.112;2023-02-15T06:21:39;2.72;;;2.20;;
17761;SDS011;9005;48.838;10.112;2023-02-15T06:24:07;2.25;;;2.05;;
17761;SDS011;9005;48.838;10.112;2023-02-15T06:26:34;2.63;;;1.67;;
17761;SDS011;9005;48.838;10.112;2023-02-15T06:29:01;2.97;;;1.88;;
17761;SDS011;9005;48.838;10.112;2023-02-15T06:31:27;1.60;;;1.50;;
17761;SDS011;9005;48.838;10.112;2023-02-15T06:33:56;4.15;;;2.08;;
17761;SDS011;9005;48.838;10.112;2023-02-15T06:36:26;1.95;;;1.80;;
17761;SDS011;9005;48.838;10.112;2023-02-15T06:38:52;1.60;;;1.45;;
17761;SDS011;9005;48.838;10.112;2023-02-15T06:41:19;3.28;;;2.40;;
17761;SDS011;9005;48.838;10.112;2023-02-15T06:43:46;2.28;;;1.17;;
17761;SDS011;9005;48.838;10.112;2023-02-15T06:46:12;3.17;;;2.05;;
17761;SDS011;9005;48.838;10.112;2023-02-15T06:48:39;2.10;;;1.17;;
17761;SDS011;9005;48.838;10.112;2023-02-15T06:51:07;3.13;;;1.88;;
17761;SDS011;9005;48.838;10.112;2023-02-15T06:53:34;2.13;;;1.90;;
17761;SDS011;9005;48.838;10.112;2023-02-15T06:56:01;1.98;;;1.70;;
17761;SDS011;9005;48.838;10.112;2023-02-15T06:58:31;2.78;;;2.25;;
17761;SDS011;9005;48.838;10.112;2023-02-15T07:00:58;2.45;;;1.70;;
17761;SDS011;9005;48.838;10.112;2023-02-15T07:03:24;2.33;;;2.08;;
17761;SDS011;9005;48.838;10.112;2023-02-15T07:05:53;2.40;;;1.88;;
17761;SDS011;9005;48.838;10.112;2023-02-15T07:08:22;7.03;;;2.17;;
17761;SDS011;9005;48.838;10.112;2023-02-15T07:10:49;2.72;;;1.30;;
17761;SDS011;9005;48.838;10.112;2023-02-15T07:13:16;1.80;;;1.60;;
17761;SDS011;9005;48.838;10.112;2023-02-15T07:15:42;7.93;;;2.15;;
17761;SDS011;9005;48.838;10.112;2023-02-15T07:18:08;11.23;;;1.90;;
17761;SDS011;9005;48.838;10.112;2023-02-15T07:20:36;3.15;;;1.70;;
17761;SDS011;9005;48.838;10.112;2023-02-15T07:23:04;5.10;;;1.35;;
17761;SDS011;9005;48.838;10.112;2023-02-15T07:25:32;3.90;;;1.75;;
17761;SDS011;9005;48.838;10.112;2023-02-15T07:27:59;11.05;;;2.05;;
17761;SDS011;9005;48.838;10.112;2023-02-15T07:30:27;3.03;;;1.85;;
17761;SDS011;9005;48.838;10.112;2023-02-15T07:32:55;1.77;;;1.15;;
17761;SDS011;9005;48.838;10.112;2023-02-15T07:35:45;1.25;;;1.15;;
17761;SDS011;9005;48.838;10.112;2023-02-15T07:38:12;0.95;;;0.88;;
17761;SDS011;9005;48.838;10.112;2023-02-15T07:40:40;5.53;;;1.83;;
17761;SDS011;9005;48.838;10.112;2023-02-15T07:43:07;5.35;;;4.05;;
17761;SDS011;9005;48.838;10.112;2023-02-15T07:45:34;15.30;;;4.45;;
17761;SDS011;9005;48.838;10.112;2023-02-15T07:48:01;8.82;;;3.97;;
17761;SDS011;9005;48.838;10.112;2023-02-15T07:50:28;6.38;;;4.35;;
17761;SDS011;9005;48.838;10.112;2023-02-15T07:52:55;5.45;;;3.33;;
17761;SDS011;9005;48.838;10.112;2023-02-15T07:55:22;5.85;;;3.78;;
17761;SDS011;9005;48.838;10.112;2023-02-15T07:57:51;4.30;;;3.35;;
17761;SDS011;9005;48.838;10.112;2023-02-15T08:00:19;4.57;;;3.75;;
17761;SDS011;9005;48.838;10.112;2023-02-15T08:02:50;6.15;;;3.72;;
17761;SDS011;9005;48.838;10.112;2023-02-15T08:05:37;4.20;;;3.65;;
17761;SDS011;9005;48.838;10.112;2023-02-15T08:08:05;4.85;;;4.35;;
17761;SDS011;9005;48.838;10.112;2023-02-15T08:10:32;4.95;;;3.78;;
17761;SDS011;9005;48.838;10.112;2023-02-15T08:13:18;5.90;;;4.00;;
17761;SDS011;9005;48.838;10.112;2023-02-15T08:15:47;4.47;;;4.07;;
17761;SDS011;9005;48.838;10.112;2023-02-15T08:18:14;4.63;;;4.22;;
17761;SDS011;9005;48.838;10.112;2023-02-15T08:20:41;4.80;;;3.45;;
17761;SDS011;9005;48.838;10.112;2023-02-15T08:23:08;4.55;;;4.00;;
17761;SDS011;9005;48.838;10.112;2023-02-15T08:25:35;4.35;;;3.95;;
17761;SDS011;9005;48.838;10.112;2023-02-15T08:28:03;4.80;;;4.40;;
17761;SDS011;9005;48.838;10.112;2023-02-15T08:30:31;4.05;;;3.63;;
17761;SDS011;9005;48.838;10.112;2023-02-15T08:32:58;5.72;;;4.43;;
17761;SDS011;9005;48.838;10.112;2023-02-15T08:35:25;6.53;;;4.57;;
17761;SDS011;9005;48.838;10.112;2023-02-15T08:37:52;5.60;;;4.68;;
17761;SDS011;9005;48.838;10.112;2023-02-15T08:40:20;6.30;;;3.78;;
17761;SDS011;9005;48.838;10.112;2023-02-15T08:42:47;6.18;;;4.28;;
17761;SDS011;9005;48.838;10.112;2023-02-15T08:45:14;4.05;;;3.13;;
17761;SDS011;9005;48.838;10.112;2023-02-15T08:47:42;4.90;;;4.32;;
17761;SDS011;9005;48.838;10.112;2023-02-15T08:50:09;4.50;;;4.10;;
17761;SDS011;9005;48.838;10.112;2023-02-15T08:52:37;3.72;;;3.28;;
17761;SDS011;9005;48.838;10.112;2023-02-15T08:55:04;4.22;;;3.83;;
17761;SDS011;9005;48.838;10.112;2023-02-15T08:57:31;4.38;;;3.78;;
17761;SDS011;9005;48.838;10.112;2023-02-15T08:59:58;3.65;;;3.35;;
17761;SDS011;9005;48.838;10.112;2023-02-15T09:02:25;4.85;;;3.72;;
17761;SDS011;9005;48.838;10.112;2023-02-15T09:04:53;3.92;;;3.47;;
17761;SDS011;9005;48.838;10.112;2023-02-15T09:07:20;3.65;;;3.08;;
17761;SDS011;9005;48.838;10.112;2023-02-15T09:09:48;4.95;;;4.45;;
17761;SDS011;9005;48.838;10.112;2023-02-15T09:12:14;4.20;;;2.80;;
17761;SDS011;9005;48.838;10.112;2023-02-15T09:14:41;3.08;;;2.47;;
17761;SDS011;9005;48.838;10.112;2023-02-15T09:17:08;2.65;;;2.45;;
17761;SDS011;9005;48.838;10.112;2023-02-15T09:19:34;3.78;;;3.47;;
17761;SDS011;9005;48.838;10.112;2023-02-15T09:22:02;2.85;;;2.63;;
17761;SDS011;9005;48.838;10.112;2023-02-15T09:24:31;4.05;;;3.67;;
17761;SDS011;9005;48.838;10.112;2023-02-15T09:26:58;4.07;;;3.72;;
17761;SDS011;9005;48.838;10.112;2023-02-15T09:29:24;3.60;;;3.30;;
17761;SDS011;9005;48.838;10.112;2023-02-15T09:31:51;4.13;;;3.83;;
17761;SDS011;9005;48.838;10.112;2023-02-15T09:34:19;4.05;;;3.75;;
17761;SDS011;9005;48.838;10.112;2023-02-15T09:36:46;3.97;;;3.58;;
17761;SDS011;9005;48.838;10.112;2023-02-15T09:39:16;4.05;;;3.75;;
17761;SDS011;9005;48.838;10.112;2023-02-15T09:41:57;4.15;;;3.50;;
17761;SDS011;9005;48.838;10.112;2023-02-15T09:44:39;3.72;;;3.42;;
17761;SDS011;9005;48.838;10.112;2023-02-15T09:47:23;4.10;;;3.70;;
17761;SDS011;9005;48.838;10.112;2023-02-15T09:50:06;4.25;;;3.85;;
17761;SDS011;9005;48.838;10.112;2023-02-15T09:52:42;4.30;;;3.60;;
17761;SDS011;9005;48.838;10.112;2023-02-15T09:55:35;5.50;;;4.43;;
17761;SDS011;9005;48.838;10.112;2023-02-15T09:58:14;4.13;;;3.72;;
17761;SDS011;9005;48.838;10.112;2023-02-15T10:00:49;3.20;;;2.90;;
17761;SDS011;9005;48.838;10.112;2023-02-15T10:03:26;4.32;;;3.92;;
17761;SDS011;9005;48.838;10.112;2023-02-15T10:06:07;4.97;;;3.65;;
17761;SDS011;9005;48.838;10.112;2023-02-15T10:08:51;6.75;;;2.67;;
17761;SDS011;9005;48.838;10.112;2023-02-15T10:11:48;4.88;;;4.38;;
17761;SDS011;9005;48.838;10.112;2023-02-15T10:14:31;3.92;;;3.58;;
17761;SDS011;9005;48.838;10.112;2023-02-15T10:17:14;3.42;;;3.13;;
17761;SDS011;9005;48.838;10.112;2023-02-15T10:19:55;3.83;;;3.53;;
17761;SDS011;9005;48.838;10.112;2023-02-15T10:22:37;3.97;;;2.95;;
17761;SDS011;9005;48.838;10.112;2023-02-15T10:25:16;3.88;;;3.25;;
17761;SDS011;9005;48.838;10.112;2023-02-15T10:27:56;4.53;;;3.63;;
17761;SDS011;9005;48.838;10.112;2023-02-15T10:30:31;3.65;;;2.65;;
17761;SDS011;9005;48.838;10.112;2023-02-15T10:33:08;5.10;;;4.60;;
17761;SDS011;9005;48.838;10.112;2023-02-15T10:35:44;4.32;;;3.92;;
17761;SDS011;9005;48.838;10.112;2023-02-15T10:38:20;4.20;;;3.80;;
17761;SDS011;9005;48.838;10.112;2023-02-15T10:41:01;6.00;;;4.35;;
17761;SDS011;9005;48.838;10.112;2023-02-15T10:43:45;2.92;;;2.58;;
17761;SDS011;9005;48.838;10.112;2023-02-15T10:46:35;6.15;;;4.28;;
17761;SDS011;9005;48.838;10.112;2023-02-15T10:49:11;4.45;;;3.53;;
17761;SDS011;9005;48.838;10.112;2023-02-15T10:51:47;3.83;;;3.47;;
17761;SDS011;9005;48.838;10.112;2023-02-15T10:54:20;4.50;;;2.97;;
17761;SDS011;9005;48.838;10.112;2023-02-15T10:56:52;5.50;;;3.33;;
17761;SDS011;9005;48.838;10.112;2023-02-15T10:59:29;5.10;;;4.53;;
17761;SDS011;9005;48.838;10.112;2023-02-15T11:02:04;4.45;;;3.28;;
17761;SDS011;9005;48.838;10.112;2023-02-15T11:04:41;2.63;;;2.40;;
17761;SDS011;9005;48.838;10.112;2023-02-15T11:07:14;3.03;;;2.72;;
17761;SDS011;9005;48.838;10.112;2023-02-15T11:09:42;5.10;;;3.63;;
17761;SDS011;9005;48.838;10.112;2023-02-15T11:12:12;2.53;;;2.25;;
17761;SDS011;9005;48.838;10.112;2023-02-15T11:14:43;3.08;;;2.67;;
17761;SDS011;9005;48.838;10.112;2023-02-15T11:17:12;5.63;;;2.65;;
17761;SDS011;9005;48.838;10.112;2023-02-15T11:19:42;2.78;;;2.58;;
17761;SDS011;9005;48.838;10.112;2023-02-15T11:22:10;4.05;;;3.65;;
17761;SDS011;9005;48.838;10.112;2023-02-15T11:24:39;4.45;;;4.05;;
17761;SDS011;9005;48.838;10.112;2023-02-15T11:27:12;5.07;;;4.57;;
17761;SDS011;9005;48.838;10.112;2023-02-15T11:29:46;6.13;;;3.50;;
17761;SDS011;9005;48.838;10.112;2023-02-15T11:32:17;3.80;;;2.85;;
17761;SDS011;9005;48.838;10.112;2023-02-15T11:34:47;5.57;;;4.97;;
17761;SDS011;9005;48.838;10.112;2023-02-15T11:37:16;4.70;;;4.15;;
17761;SDS011;9005;48.838;10.112;2023-02-15T11:39:50;5.00;;;4.38;;
17761;SDS011;9005;48.838;10.112;2023-02-15T11:42:20;4.13;;;2.72;;
17761;SDS011;9005;48.838;10.112;2023-02-15T11:44:52;3.53;;;3.22;;
17761;SDS011;9005;48.838;10.112;2023-02-15T11:47:24;3.60;;;2.67;;
17761;SDS011;9005;48.838;10.112;2023-02-15T11:49:51;5.57;;;4.18;;
17761;SDS011;9005;48.838;10.112;2023-02-15T11:52:18;2.83;;;2.60;;
17761;SDS011;9005;48.838;10.112;2023-02-15T11:54:45;2.80;;;2.45;;
17761;SDS011;9005;48.838;10.112;2023-02-15T11:57:15;6.65;;;3.65;;
17761;SDS011;9005;48.838;10.112;2023-02-15T11:59:46;4.93;;;4.18;;
17761;SDS011;9005;48.838;10.112;2023-02-15T12:02:19;5.93;;;5.32;;
17761;SDS011;9005;48.838;10.112;2023-02-15T12:04:48;4.80;;;4.30;;
17761;SDS011;9005;48.838;10.112;2023-02-15T12:07:19;3.65;;;3.08;;
17761;SDS011;9005;48.838;10.112;2023-02-15T12:09:51;3.65;;;2.63;;
17761;SDS011;9005;48.838;10.112;2023-02-15T12:12:24;5.88;;;4.78;;
17761;SDS011;9005;48.838;10.112;2023-02-15T12:14:53;4.40;;;4.00;;
17761;SDS011;9005;48.838;10.112;2023-02-15T12:17:23;5.43;;;4.93;;
17761;SDS011;9005;48.838;10.112;2023-02-15T12:19:50;4.03;;;3.35;;
17761;SDS011;9005;48.838;10.112;2023-02-15T12:22:22;5.72;;;4.95;;
17761;SDS011;9005;48.838;10.112;2023-02-15T12:24:51;5.50;;;3.72;;
17761;SDS011;9005;48.838;10.112;2023-02-15T12:27:20;4.38;;;3.97;;
17761;SDS011;9005;48.838;10.112;2023-02-15T12:29:50;4.43;;;3.80;;
17761;SDS011;9005;48.838;10.112;2023-02-15T12:32:20;3.25;;;2.95;;
17761;SDS011;9005;48.838;10.112;2023-02-15T12:34:50;5.63;;;3.88;;
17761;SDS011;9005;48.838;10.112;2023-02-15T12:37:21;4.30;;;3.90;;
17761;SDS011;9005;48.838;10.112;2023-02-15T12:39:52;3.95;;;2.50;;
17761;SDS011;9005;48.838;10.112;2023-02-15T12:42:21;6.38;;;4.22;;
17761;SDS011;9005;48.838;10.112;2023-02-15T12:44:56;6.20;;;4.55;;
17761;SDS011;9005;48.838;10.112;2023-02-15T12:47:26;5.05;;;4.50;;
17761;SDS011;9005;48.838;10.112;2023-02-15T12:50:04;5.55;;;4.18;;
17761;SDS011;9005;48.838;10.112;2023-02-15T12:52:36;3.53;;;3.17;;
17761;SDS011;9005;48.838;10.112;2023-02-15T12:55:09;3.05;;;2.72;;
17761;SDS011;9005;48.838;10.112;2023-02-15T12:57:43;4.20;;;3.63;;
17761;SDS011;9005;48.838;10.112;2023-02-15T13:00:24;4.68;;;3.72;;
17761;SDS011;9005;48.838;10.112;2023-02-15T13:02:55;5.00;;;4.50;;
17761;SDS011;9005;48.838;10.112;2023-02-15T13:05:25;4.72;;;4.25;;
17761;SDS011;9005;48.838;10.112;2023-02-15T13:07:56;5.65;;;4.13;;
17761;SDS011;9005;48.838;10.112;2023-02-15T13:10:25;5.35;;;4.82;;
17761;SDS011;9005;48.838;10.112;2023-02-15T13:12:54;4.97;;;4.07;;
17761;SDS011;9005;48.838;10.112;2023-02-15T13:15:23;7.63;;;5.65;;
17761;SDS011;9005;48.838;10.112;2023-02-15T13:18:01;12.52;;;4.88;;
17761;SDS011;9005;48.838;10.112;2023-02-15T13:20:30;5.78;;;5.13;;
17761;SDS011;9005;48.838;10.112;2023-02-15T13:23:01;6.15;;;4.70;;
17761;SDS011;9005;48.838;10.112;2023-02-15T13:25:31;5.93;;;4.95;;
17761;SDS011;9005;48.838;10.112;2023-02-15T13:28:05;5.32;;;4.82;;
17761;SDS011;9005;48.838;10.112;2023-02-15T13:30:37;14.45;;;4.80;;
17761;SDS011;9005;48.838;10.112;2023-02-15T13:33:11;6.60;;;3.90;;
17761;SDS011;9005;48.838;10.112;2023-02-15T13:35:43;4.05;;;3.30;;
17761;SDS011;9005;48.838;10.112;2023-02-15T13:38:17;4.60;;;4.10;;
17761;SDS011;9005;48.838;10.112;2023-02-15T13:40:58;4.65;;;4.00;;
17761;SDS011;9005;48.838;10.112;2023-02-15T13:43:33;5.47;;;4.10;;
17761;SDS011;9005;48.838;10.112;2023-02-15T13:46:13;4.90;;;4.28;;
17761;SDS011;9005;48.838;10.112;2023-02-15T13:48:55;4.68;;;3.63;;
17761;SDS011;9005;48.838;10.112;2023-02-15T13:51:35;5.47;;;4.47;;
17761;SDS011;9005;48.838;10.112;2023-02-15T13:54:20;7.95;;;4.60;;
17761;SDS011;9005;48.838;10.112;2023-02-15T13:57:13;5.65;;;4.28;;
17761;SDS011;9005;48.838;10.112;2023-02-15T13:59:56;6.63;;;5.93;;
17761;SDS011;9005;48.838;10.112;2023-02-15T14:05:39;5.82;;;4.40;;
17761;SDS011;9005;48.838;10.112;2023-02-15T14:08:21;7.38;;;4.38;;
17761;SDS011;9005;48.838;10.112;2023-02-15T14:11:03;5.50;;;4.53;;
17761;SDS011;9005;48.838;10.112;2023-02-15T14:13:49;5.95;;;4.38;;
17761;SDS011;9005;48.838;10.112;2023-02-15T14:16:26;4.40;;;3.45;;
17761;SDS011;9005;48.838;10.112;2023-02-15T14:19:04;5.13;;;4.13;;
17761;SDS011;9005;48.838;10.112;2023-02-15T14:21:42;5.45;;;4.93;;
17761;SDS011;9005;48.838;10.112;2023-02-15T14:24:24;6.15;;;4.05;;
17761;SDS011;9005;48.838;10.112;2023-02-15T14:26:59;6.38;;;3.75;;
17761;SDS011;9005;48.838;10.112;2023-02-15T14:29:38;5.03;;;4.00;;
17761;SDS011;9005;48.838;10.112;2023-02-15T14:32:13;6.65;;;5.13;;
17761;SDS011;9005;48.838;10.112;2023-02-15T14:34:45;9.05;;;4.80;;
17761;SDS011;9005;48.838;10.112;2023-02-15T14:37:19;4.80;;;4.35;;
17761;SDS011;9005;48.838;10.112;2023-02-15T14:39:52;7.43;;;4.78;;
17761;SDS011;9005;48.838;10.112;2023-02-15T14:42:43;6.88;;;4.70;;
17761;SDS011;9005;48.838;10.112;2023-02-15T14:45:19;8.98;;;4.90;;
17761;SDS011;9005;48.838;10.112;2023-02-15T14:47:52;9.27;;;7.00;;
17761;SDS011;9005;48.838;10.112;2023-02-15T14:50:43;7.03;;;4.90;;
17761;SDS011;9005;48.838;10.112;2023-02-15T14:53:24;8.77;;;4.38;;
17761;SDS011;9005;48.838;10.112;2023-02-15T14:58:55;7.53;;;4.95;;
17761;SDS011;9005;48.838;10.112;2023-02-15T15:01:25;5.95;;;5.35;;
17761;SDS011;9005;48.838;10.112;2023-02-15T15:03:54;7.00;;;5.05;;
17761;SDS011;9005;48.838;10.112;2023-02-15T15:06:25;6.68;;;5.25;;
17761;SDS011;9005;48.838;10.112;2023-02-15T15:08:57;6.53;;;5.13;;
17761;SDS011;9005;48.838;10.112;2023-02-15T15:11:37;6.38;;;5.38;;
17761;SDS011;9005;48.838;10.112;2023-02-15T15:14:07;6.82;;;4.80;;
17761;SDS011;9005;48.838;10.112;2023-02-15T15:16:47;7.93;;;5.05;;
17761;SDS011;9005;48.838;10.112;2023-02-15T15:22:36;7.03;;;5.30;;
17761;SDS011;9005;48.838;10.112;2023-02-15T15:25:08;8.55;;;5.85;;
17761;SDS011;9005;48.838;10.112;2023-02-15T15:27:43;7.38;;;5.40;;
17761;SDS011;9005;48.838;10.112;2023-02-15T15:33:29;10.18;;;6.30;;
17761;SDS011;9005;48.838;10.112;2023-02-15T15:36:26;10.50;;;6.60;;